Time;durP1;ratioP1;P1;durP2;ratioP2;P2;SDS_P1;SDS_P2;PMS_P1;PMS_P2;Temp;Humidity;BMP_temperature;BMP_pressure;BME280_temperature;BME280_humidity;BME280_pressure;Samples;Min_cycle;Max_cycle;Signal;HPM_P1;HPM_P2
2021/06/10 00:02:15;;;;;;;5.78;4.05;;;;;;;18.66;69.10;100149.59;5010667;28;20711;-73
2021/06/10 00:04:41;;;;;;;8.15;4.30;;;;;;;18.90;68.89;100163.50;5029356;28;20045;-75
2021/06/10 00:07:07;;;;;;;7.70;4.20;;;;;;;18.79;69.24;100153.09;5032103;28;20056;-72
2021/06/10 00:09:33;;;;;;;7.32;3.90;;;;;;;18.82;69.21;100170.50;5031984;28;20047;-74
2021/06/10 00:11:58;;;;;;;26.98;17.38;;;;;;;18.96;69.11;100168.75;5014953;28;20064;-77
2021/06/10 00:14:24;;;;;;;26.27;18.02;;;;;;;19.22;68.24;100179.13;5013363;28;20025;-73
2021/06/10 00:16:50;;;;;;;107.60;67.20;;;;;;;19.32;67.52;100177.38;5032280;28;20401;-73
2021/06/10 00:19:15;;;;;;;8.20;4.78;;;;;;;19.43;66.80;100174.72;5032479;28;20040;-76
2021/06/10 00:21:41;;;;;;;7.78;4.63;;;;;;;19.34;66.88;100170.38;5032094;28;20030;-72
2021/06/10 00:24:08;;;;;;;7.00;4.45;;;;;;;19.14;67.92;100167.84;5014129;28;20025;-71
2021/06/10 00:26:34;;;;;;;8.07;4.57;;;;;;;18.43;68.98;100102.59;5032069;28;20029;-72
2021/06/10 00:29:00;;;;;;;12.38;5.10;;;;;;;18.82;68.62;100163.53;5032297;28;20096;-72
2021/06/10 00:31:27;;;;;;;23.58;13.35;;;;;;;19.02;68.87;100167.88;5031724;28;20121;-74
2021/06/10 00:33:53;;;;;;;18.05;11.43;;;;;;;19.12;68.06;100166.97;5032218;28;20048;-73
2021/06/10 00:36:19;;;;;;;26.02;6.70;;;;;;;19.18;66.70;100161.72;5014539;28;20029;-73
2021/06/10 00:38:46;;;;;;;14.57;5.43;;;;;;;18.59;66.39;100044.16;5014442;28;20401;-75
2021/06/10 00:41:13;;;;;;;14.43;4.90;;;;;;;19.07;67.02;100151.28;5030877;28;20066;-71
2021/06/10 00:43:39;;;;;;;10.05;4.85;;;;;;;19.05;67.00;100155.66;5031438;28;20087;-73
2021/06/10 00:46:05;;;;;;;13.65;5.22;;;;;;;19.01;68.01;100158.28;5027966;28;20148;-73
2021/06/10 00:48:31;;;;;;;18.90;7.60;;;;;;;19.15;66.84;100148.66;5031351;28;20107;-74
2021/06/10 00:50:57;;;;;;;16.10;7.55;;;;;;;19.08;67.28;100146.94;5012578;28;20049;-71
2021/06/10 00:53:25;;;;;;;21.48;5.72;;;;;;;18.59;67.71;100101.69;5031837;28;20597;-72
2021/06/10 00:55:56;;;;;;;11.15;5.00;;;;;;;18.70;68.01;100127.78;5031393;28;20036;-75
2021/06/10 00:58:23;;;;;;;11.52;4.70;;;;;;;18.67;68.47;100142.63;5028912;28;20023;-72
2021/06/10 01:00:50;;;;;;;7.50;4.80;;;;;;;18.79;68.26;100144.34;5031136;28;20521;-74
2021/06/10 01:03:17;;;;;;;8.68;4.88;;;;;;;18.79;67.36;100126.03;5013806;28;20034;-74
2021/06/10 01:05:47;;;;;;;11.18;5.10;;;;;;;18.83;66.79;100139.13;5031556;28;20511;-73
2021/06/10 01:08:12;;;;;;;;;;;;;;;18.83;67.59;100139.13;5032137;28;20496;-73
2021/06/10 01:10:56;;;;;;;6.60;4.65;;;;;;;18.86;67.17;100140.84;5031741;28;20063;-71
2021/06/10 01:13:45;;;;;;;8.38;4.25;;;;;;;18.79;67.51;100140.00;5031908;28;20068;-73
2021/06/10 01:16:11;;;;;;;;;;;;;;;18.75;67.46;100135.63;5032129;28;20028;-72
2021/06/10 01:18:39;;;;;;;8.20;5.20;;;;;;;18.48;67.32;100121.75;5031713;28;20051;-74
2021/06/10 01:21:06;;;;;;;8.90;4.95;;;;;;;18.44;66.94;100117.38;5031363;28;20059;-74
2021/06/10 01:23:52;;;;;;;5.43;4.50;;;;;;;18.57;67.08;100136.53;5031426;28;20112;-72
2021/06/10 01:26:39;;;;;;;7.00;4.55;;;;;;;18.46;66.94;100130.47;5031273;28;20544;-71
2021/06/10 01:29:10;;;;;;;10.93;6.70;;;;;;;18.13;72.60;100070.38;5031145;28;20030;-72
2021/06/10 01:31:36;;;;;;;9.63;5.95;;;;;;;18.38;71.91;100093.84;5031011;28;20033;-73
2021/06/10 01:34:05;;;;;;;8.77;5.03;;;;;;;18.62;69.66;100120.84;5031069;28;20058;-73
2021/06/10 01:36:37;;;;;;;9.50;5.18;;;;;;;18.47;65.95;100085.13;5032859;28;20057;-72
2021/06/10 01:39:11;;;;;;;8.93;5.00;;;;;;;18.48;66.26;100124.34;5017569;28;20039;-73
2021/06/10 01:41:38;;;;;;;6.20;5.07;;;;;;;18.32;66.77;100127.84;5035141;28;20408;-73
2021/06/10 01:44:06;;;;;;;6.45;5.20;;;;;;;18.07;67.33;100102.59;5034925;28;20030;-73
2021/06/10 01:46:32;;;;;;;9.88;5.20;;;;;;;18.04;68.23;100125.22;5035270;28;20044;-73
2021/06/10 01:48:59;;;;;;;8.40;5.18;;;;;;;17.79;69.71;100123.44;5035151;28;20480;-72
2021/06/10 01:51:27;;;;;;;9.05;5.25;;;;;;;17.70;70.18;100120.78;5035099;28;20026;-72
2021/06/10 01:53:55;;;;;;;7.38;4.97;;;;;;;17.51;70.38;100093.78;5035027;28;20026;-73
2021/06/10 01:56:23;;;;;;;8.70;5.20;;;;;;;17.36;70.75;100044.16;5034792;28;20541;-72
2021/06/10 01:58:51;;;;;;;8.50;5.18;;;;;;;17.28;70.90;100052.84;5034635;28;20025;-73
2021/06/10 02:01:17;;;;;;;7.25;5.05;;;;;;;17.51;71.17;100119.88;5016695;28;20036;-73
2021/06/10 02:03:45;;;;;;;6.20;4.75;;;;;;;17.39;71.61;100118.09;5029343;28;20114;-73
2021/06/10 02:06:12;;;;;;;7.45;5.60;;;;;;;17.40;71.50;100122.44;5024197;28;20029;-74
2021/06/10 02:08:40;;;;;;;8.40;5.05;;;;;;;17.03;71.06;100033.63;5033963;28;20029;-70
2021/06/10 02:11:06;;;;;;;7.50;5.00;;;;;;;17.44;71.35;100108.53;5033847;28;20021;-73
2021/06/10 02:13:36;;;;;;;7.32;5.65;;;;;;;17.42;71.48;100117.22;5034398;28;20017;-73
2021/06/10 02:16:07;;;;;;;9.52;5.32;;;;;;;17.36;72.08;100118.09;5034372;28;20112;-71
2021/06/10 02:18:34;;;;;;;9.73;5.35;;;;;;;17.28;72.09;100111.97;5020623;28;20021;-75
2021/06/10 02:21:06;;;;;;;6.95;5.43;;;;;;;16.88;71.90;100044.84;5033742;28;20488;-70
2021/06/10 02:23:38;;;;;;;7.35;5.43;;;;;;;17.07;72.40;100121.47;5033978;28;20029;-72
2021/06/10 02:26:05;;;;;;;10.80;6.30;;;;;;;16.86;72.74;100116.97;5033802;28;20100;-72
2021/06/10 02:28:32;;;;;;;6.63;5.93;;;;;;;16.85;72.52;100114.34;5033787;28;20028;-71
2021/06/10 02:30:59;;;;;;;9.70;6.18;;;;;;;16.72;73.33;100140.34;5016111;28;20136;-68
2021/06/10 02:33:25;;;;;;;7.88;5.63;;;;;;;16.79;73.28;100128.22;5033292;28;20040;-69
2021/06/10 02:35:51;;;;;;;7.47;6.32;;;;;;;16.99;73.48;100138.81;5016250;28;20017;-72
2021/06/10 02:38:19;;;;;;;7.65;6.00;;;;;;;17.12;72.94;100150.16;5032119;28;20127;-73
2021/06/10 02:40:48;;;;;;;9.80;6.40;;;;;;;17.05;73.32;100141.44;5033663;28;20108;-71
2021/06/10 02:43:14;;;;;;;12.73;6.32;;;;;;;17.16;72.46;100135.41;5033573;28;20404;-69
2021/06/10 02:45:59;;;;;;;9.02;6.28;;;;;;;17.20;72.01;100126.75;5033584;28;20036;-72
2021/06/10 02:48:28;;;;;;;9.07;5.97;;;;;;;17.43;71.74;100139.84;5033065;28;20046;-72
2021/06/10 02:50:54;;;;;;;10.20;5.88;;;;;;;16.78;72.31;100024.81;5033161;28;20048;-71
2021/06/10 02:53:22;;;;;;;12.57;6.43;;;;;;;17.35;71.97;100124.19;5015839;28;20108;-77
2021/06/10 02:55:49;;;;;;;13.65;5.95;;;;;;;17.45;72.08;100135.53;5033457;28;20025;-71
2021/06/10 02:58:19;;;;;;;14.23;5.85;;;;;;;17.66;71.57;100142.53;5033646;28;20031;-69
2021/06/10 03:00:45;;;;;;;8.98;5.60;;;;;;;17.44;71.28;100099.84;5033053;28;20033;-68
2021/06/10 03:03:15;;;;;;;9.00;5.85;;;;;;;17.70;71.01;100133.00;5032892;28;20435;-73
2021/06/10 03:05:41;;;;;;;;;;;;;;;17.73;71.39;100143.41;5032369;28;20030;-72
2021/06/10 03:08:13;;;;;;;9.95;5.57;;;;;;;17.61;71.27;100126.88;5033424;28;20000;-70
2021/06/10 03:10:39;;;;;;;7.00;5.32;;;;;;;17.68;71.20;100129.50;5032987;28;20025;-72
2021/06/10 03:13:06;;;;;;;11.30;5.70;;;;;;;17.80;71.04;100150.41;5015423;28;20103;-68
2021/06/10 03:15:34;;;;;;;10.88;5.85;;;;;;;17.75;70.73;100128.63;5031763;28;20029;-72
2021/06/10 03:18:00;;;;;;;8.93;6.28;;;;;;;17.67;70.30;100130.34;5032641;28;20029;-70
2021/06/10 03:20:27;;;;;;;11.05;6.38;;;;;;;17.58;69.82;100100.78;5031869;28;20048;-72
2021/06/10 03:22:56;;;;;;;10.05;5.97;;;;;;;17.42;69.49;100058.09;5032623;28;20481;-76
2021/06/10 03:25:59;;;;;;;8.05;5.72;;;;;;;17.84;69.56;100135.63;5032913;28;20108;-70
2021/06/10 03:28:25;;;;;;;9.00;6.57;;;;;;;17.72;69.83;100129.50;5029477;28;20057;-74
2021/06/10 03:30:51;;;;;;;9.77;5.72;;;;;;;17.85;69.50;100137.38;5146272;22;20008;-74
2021/06/10 03:33:16;;;;;;;10.75;6.00;;;;;;;17.84;69.80;100120.81;5073450;28;20028;-73
2021/06/10 03:35:44;;;;;;;6.95;5.57;;;;;;;17.94;69.54;100142.63;5053850;28;20495;-73
2021/06/10 03:38:13;;;;;;;8.80;5.70;;;;;;;17.91;69.46;100133.00;5137684;22;20025;-71
2021/06/10 03:40:59;;;;;;;9.43;6.03;;;;;;;17.85;69.89;100138.22;5070748;28;20101;-73
2021/06/10 03:43:26;;;;;;;10.68;5.90;;;;;;;17.35;70.63;100073.75;5071160;28;20041;-71
2021/06/10 03:45:52;;;;;;;11.45;5.95;;;;;;;17.46;72.01;100124.22;5072094;28;20043;-71
2021/06/10 03:48:18;;;;;;;10.18;6.32;;;;;;;17.48;72.37;100134.66;5072408;28;20411;-72
2021/06/10 03:50:43;;;;;;;12.10;6.32;;;;;;;17.54;72.75;100129.47;5072628;28;20028;-74
2021/06/10 03:53:09;;;;;;;11.65;6.88;;;;;;;17.47;72.69;100120.75;5071473;28;20428;-73
2021/06/10 03:55:36;;;;;;;8.52;6.22;;;;;;;17.43;73.07;100134.63;5072178;28;20063;-71
2021/06/10 03:58:02;;;;;;;8.68;6.20;;;;;;;17.28;73.19;100120.69;5072165;28;20047;-73
2021/06/10 04:00:29;;;;;;;9.52;6.88;;;;;;;17.39;73.24;100125.06;5053035;28;20476;-72
2021/06/10 04:02:58;;;;;;;8.30;6.28;;;;;;;17.44;73.30;100120.72;5058442;28;20029;-71
2021/06/10 04:05:26;;;;;;;10.18;6.38;;;;;;;17.48;73.36;100125.06;5072096;28;20052;-69
2021/06/10 04:07:54;;;;;;;9.07;6.50;;;;;;;17.49;73.44;100120.75;5071491;28;20036;-70
2021/06/10 04:10:22;;;;;;;11.20;6.90;;;;;;;17.33;74.09;100106.78;5054168;28;20097;-73
2021/06/10 04:12:48;;;;;;;9.98;6.55;;;;;;;17.25;74.88;100117.19;5071476;28;20028;-70
2021/06/10 04:15:15;;;;;;;9.98;6.32;;;;;;;17.14;75.73;100107.56;5072181;28;20093;-72
2021/06/10 04:17:41;;;;;;;10.82;7.40;;;;;;;17.07;76.79;100111.03;5068035;28;20024;-71
2021/06/10 04:20:08;;;;;;;10.57;7.90;;;;;;;17.01;78.43;100103.19;5042847;28;20017;-72
2021/06/10 04:22:33;;;;;;;13.98;8.32;;;;;;;17.00;79.76;100119.69;5071421;28;20028;-73
2021/06/10 04:24:59;;;;;;;9.30;8.20;;;;;;;16.63;79.71;100033.44;5071118;28;20029;-70
2021/06/10 04:27:24;;;;;;;10.43;7.75;;;;;;;17.18;79.63;100121.50;5052137;28;20032;-70
2021/06/10 04:29:49;;;;;;;11.00;8.00;;;;;;;17.00;79.94;100127.50;5071251;28;20021;-72
2021/06/10 04:32:15;;;;;;;13.30;8.30;;;;;;;17.03;80.19;100113.63;5071497;28;20032;-68
2021/06/10 04:34:40;;;;;;;9.05;8.15;;;;;;;16.91;80.05;100060.53;5071156;28;20058;-69
2021/06/10 04:37:06;;;;;;;9.63;8.38;;;;;;;17.23;80.38;100095.44;5070587;28;20071;-71
2021/06/10 04:39:31;;;;;;;14.98;7.97;;;;;;;17.47;79.57;100123.38;5053098;28;20044;-73
2021/06/10 04:41:57;;;;;;;11.30;7.65;;;;;;;17.46;80.13;100130.31;5071189;28;20103;-74
2021/06/10 04:44:22;;;;;;;15.93;8.25;;;;;;;17.52;79.24;100105.97;5071401;28;20060;-73
2021/06/10 04:46:48;;;;;;;11.25;7.30;;;;;;;17.72;78.53;100116.44;5070653;28;20028;-73
2021/06/10 04:49:13;;;;;;;7.68;6.82;;;;;;;17.65;78.58;100113.84;5053276;28;20110;-70
2021/06/10 04:51:39;;;;;;;10.70;7.13;;;;;;;17.80;78.70;100129.50;5059417;28;20055;-73
2021/06/10 04:54:04;;;;;;;8.63;6.72;;;;;;;17.94;78.59;100124.34;5059506;28;20434;-71
2021/06/10 04:56:30;;;;;;;11.30;7.22;;;;;;;17.82;78.14;100124.28;5070638;28;20064;-71
2021/06/10 04:58:55;;;;;;;10.50;7.15;;;;;;;17.91;78.24;100130.41;5070806;28;20035;-70
2021/06/10 05:01:23;;;;;;;14.48;7.25;;;;;;;17.99;77.83;100113.91;5071477;28;20024;-73
2021/06/10 05:03:49;;;;;;;10.88;7.35;;;;;;;18.15;77.34;100131.31;5070565;28;20448;-73
2021/06/10 05:06:15;;;;;;;10.95;7.38;;;;;;;17.91;77.80;100080.78;5071039;28;20029;-68
2021/06/10 05:08:40;;;;;;;8.18;7.28;;;;;;;18.20;77.94;100129.59;5070143;28;20071;-68
2021/06/10 05:11:11;;;;;;;10.68;7.50;;;;;;;17.92;78.65;100073.84;5070065;28;20024;-70
2021/06/10 05:13:37;;;;;;;7.97;7.18;;;;;;;18.25;78.17;100127.84;5052519;28;20521;-69
2021/06/10 05:16:02;;;;;;;13.25;7.70;;;;;;;18.35;78.23;100135.69;5069593;28;20064;-71
2021/06/10 05:18:28;;;;;;;9.32;7.80;;;;;;;18.44;78.62;100135.66;5069264;28;20413;-72
2021/06/10 05:20:54;;;;;;;10.30;7.13;;;;;;;18.21;77.56;100076.47;5069789;28;20021;-70
2021/06/10 05:23:19;;;;;;;11.52;7.85;;;;;;;18.71;77.36;100142.59;5049064;28;20032;-70
2021/06/10 05:25:45;;;;;;;11.15;7.78;;;;;;;18.52;76.21;100076.41;5069752;28;20032;-70
2021/06/10 05:28:11;;;;;;;8.18;7.20;;;;;;;19.03;76.41;100143.47;5070268;28;20021;-72
2021/06/10 05:31:00;;;;;;;8.57;7.10;;;;;;;19.16;75.30;100139.03;5070138;28;20024;-72
2021/06/10 05:33:25;;;;;;;11.43;7.55;;;;;;;19.20;75.82;100143.38;5064147;28;20060;-72
2021/06/10 05:35:51;;;;;;;7.72;6.80;;;;;;;19.28;76.04;100139.00;5069944;28;20079;-72
2021/06/10 05:38:16;;;;;;;10.40;6.80;;;;;;;19.37;75.36;100138.09;5070457;28;20033;-73
2021/06/10 05:40:42;;;;;;;6.93;6.15;;;;;;;19.53;74.73;100144.13;5070091;28;20482;-70
2021/06/10 05:43:08;;;;;;;9.65;6.05;;;;;;;19.39;75.03;100092.69;5070074;28;20450;-72
2021/06/10 05:45:33;;;;;;;11.38;5.82;;;;;;;19.86;74.12;100135.22;5069971;28;20033;-71
2021/06/10 05:47:59;;;;;;;10.20;5.68;;;;;;;19.69;72.51;100077.69;5069748;28;20024;-69
2021/06/10 05:50:24;;;;;;;8.88;5.68;;;;;;;20.10;72.32;100138.56;5067717;28;20399;-70
2021/06/10 05:52:50;;;;;;;9.48;5.97;;;;;;;20.18;73.17;100144.59;5066200;28;20036;-70
2021/06/10 05:55:15;;;;;;;7.55;5.07;;;;;;;20.29;73.07;100131.41;5069793;28;20021;-71
2021/06/10 05:57:41;;;;;;;9.57;5.55;;;;;;;20.38;72.15;100124.34;5069923;28;20025;-70
2021/06/10 06:00:07;;;;;;;8.23;5.32;;;;;;;20.49;72.38;100139.09;5068698;28;20028;-70
2021/06/10 06:02:33;;;;;;;9.25;5.40;;;;;;;20.61;71.10;100138.13;5065898;28;20063;-70
2021/06/10 06:04:58;;;;;;;14.60;6.03;;;;;;;20.67;73.06;100137.16;5067733;28;20060;-70
2021/06/10 06:07:24;;;;;;;7.03;5.05;;;;;;;20.78;71.62;100145.84;5069424;28;20033;-70
2021/06/10 06:09:49;;;;;;;10.38;6.20;;;;;;;20.96;71.22;100141.28;5069969;28;20033;-71
2021/06/10 06:12:16;;;;;;;6.53;5.00;;;;;;;20.91;69.79;100130.84;5069749;28;20384;-71
2021/06/10 06:14:44;;;;;;;6.75;4.63;;;;;;;20.68;69.68;100131.91;5069736;28;20024;-71
2021/06/10 06:17:12;;;;;;;5.93;4.80;;;;;;;20.83;69.02;100127.44;5054795;28;20024;-71
2021/06/10 06:19:38;;;;;;;8.65;4.40;;;;;;;21.09;68.10;100142.88;5069532;28;20017;-69
2021/06/10 06:22:05;;;;;;;7.32;4.60;;;;;;;21.14;67.27;100114.81;5070333;28;20039;-73
2021/06/10 06:24:31;;;;;;;6.00;4.40;;;;;;;21.37;67.20;100142.56;5073243;28;20094;-72
2021/06/10 06:26:57;;;;;;;7.05;4.47;;;;;;;21.34;68.41;100097.94;5073391;28;20028;-73
2021/06/10 06:29:23;;;;;;;6.00;4.20;;;;;;;21.48;64.75;100135.41;5072950;28;20399;-69
2021/06/10 06:31:49;;;;;;;7.90;4.38;;;;;;;21.38;64.49;100136.38;5072895;28;20025;-70
2021/06/10 06:34:15;;;;;;;6.20;4.55;;;;;;;21.31;69.18;100143.50;5073210;28;20028;-69
2021/06/10 06:36:40;;;;;;;9.48;4.50;;;;;;;21.34;66.98;100140.81;5072114;28;20053;-75
2021/06/10 06:39:06;;;;;;;4.80;3.88;;;;;;;21.50;64.71;100151.13;5055588;28;20059;-71
2021/06/10 06:41:32;;;;;;;6.70;4.53;;;;;;;21.48;65.92;100151.16;5071857;28;20077;-71
2021/06/10 06:43:58;;;;;;;7.38;4.43;;;;;;;21.61;62.81;100137.91;5055317;28;20144;-71
2021/06/10 06:46:24;;;;;;;6.65;4.32;;;;;;;21.92;63.14;100143.56;5072990;28;20102;-73
2021/06/10 06:48:50;;;;;;;8.20;4.32;;;;;;;22.08;63.45;100148.56;5073242;28;20503;-73
2021/06/10 06:51:15;;;;;;;9.40;4.10;;;;;;;22.28;63.88;100146.50;5072985;28;20064;-74
2021/06/10 06:53:41;;;;;;;5.13;3.97;;;;;;;22.30;63.28;100149.09;5069519;28;20475;-74
2021/06/10 06:56:07;;;;;;;4.40;3.45;;;;;;;22.20;61.19;100145.75;5077432;28;20530;-73
2021/06/10 06:58:32;;;;;;;6.78;4.18;;;;;;;22.22;61.20;100148.34;5069203;28;20086;-73
2021/06/10 07:00:58;;;;;;;5.47;3.60;;;;;;;22.30;63.35;100138.56;5070212;28;20047;-72
2021/06/10 07:03:24;;;;;;;5.07;4.07;;;;;;;22.42;61.46;100159.44;5072057;28;20103;-72
2021/06/10 07:05:52;;;;;;;5.97;3.53;;;;;;;22.43;60.45;100155.03;5072505;28;20025;-76
2021/06/10 07:08:18;;;;;;;5.65;3.85;;;;;;;22.57;63.47;100145.16;5071105;28;20025;-75
2021/06/10 07:10:43;;;;;;;6.50;3.85;;;;;;;22.76;60.72;100157.97;5068312;28;20031;-76
2021/06/10 07:13:11;;;;;;;10.82;3.80;;;;;;;22.94;59.66;100168.16;5072359;28;20024;-74
2021/06/10 07:15:38;;;;;;;10.30;3.63;;;;;;;23.06;58.58;100164.41;5067021;28;20075;-74
2021/06/10 07:18:11;;;;;;;5.68;3.42;;;;;;;23.27;57.12;100171.06;5054099;28;20029;-74
2021/06/10 07:20:36;;;;;;;4.43;3.00;;;;;;;23.24;56.65;100178.16;5054081;28;20060;-73
2021/06/10 07:23:02;;;;;;;7.78;3.10;;;;;;;23.37;58.98;100173.50;5053620;28;20090;-73
2021/06/10 07:25:27;;;;;;;8.82;3.80;;;;;;;23.33;56.89;100167.44;5053985;28;20033;-72
2021/06/10 07:27:53;;;;;;;5.45;2.90;;;;;;;23.42;54.33;100171.66;5053427;28;20028;-74
2021/06/10 07:30:22;;;;;;;8.07;3.25;;;;;;;23.43;58.53;100171.59;5053715;28;20025;-73
2021/06/10 07:32:48;;;;;;;7.00;3.10;;;;;;;23.40;57.89;100162.91;5053619;28;20063;-73
2021/06/10 07:35:14;;;;;;;8.43;3.42;;;;;;;23.47;57.01;100171.56;5052578;28;20029;-73
2021/06/10 07:37:40;;;;;;;4.70;3.30;;;;;;;23.70;58.91;100168.41;5018256;28;20037;-75
2021/06/10 07:40:14;;;;;;;7.85;3.30;;;;;;;23.96;54.14;100181.03;5053645;28;20060;-73
2021/06/10 07:42:39;;;;;;;6.75;3.35;;;;;;;23.99;54.53;100165.16;5053156;28;20051;-74
2021/06/10 07:45:10;;;;;;;6.88;3.08;;;;;;;24.12;53.08;100178.03;5053321;28;20472;-73
2021/06/10 07:47:36;;;;;;;4.00;2.50;;;;;;;24.26;50.06;100175.06;5053184;28;20511;-71
2021/06/10 07:50:03;;;;;;;3.75;2.72;;;;;;;24.37;51.81;100166.00;5051810;28;20033;-73
2021/06/10 07:52:28;;;;;;;7.15;2.53;;;;;;;24.46;48.95;100170.16;5053152;28;20017;-73
2021/06/10 07:54:54;;;;;;;3.03;2.55;;;;;;;24.58;48.75;100173.41;5052961;28;20095;-73
2021/06/10 07:57:20;;;;;;;8.32;2.72;;;;;;;24.66;48.95;100159.13;5053236;28;20400;-73
2021/06/10 07:59:46;;;;;;;3.97;2.90;;;;;;;24.82;52.32;100172.78;5053128;28;20025;-73
2021/06/10 08:02:14;;;;;;;11.95;3.15;;;;;;;24.86;49.26;100168.25;5052867;28;20029;-74
2021/06/10 08:04:40;;;;;;;5.28;2.95;;;;;;;24.38;49.76;100087.69;5052788;28;20039;-73
2021/06/10 08:07:05;;;;;;;5.00;2.90;;;;;;;24.89;52.74;100156.78;5052864;28;20471;-73
2021/06/10 08:09:32;;;;;;;4.82;3.05;;;;;;;24.99;49.06;100176.75;5034813;28;20028;-73
2021/06/10 08:11:59;;;;;;;5.20;2.75;;;;;;;24.93;52.21;100153.13;5052465;28;20468;-73
2021/06/10 08:14:25;;;;;;;3.65;2.85;;;;;;;24.99;50.49;100161.75;5052592;28;20492;-73
2021/06/10 08:16:50;;;;;;;5.95;2.90;;;;;;;24.94;51.47;100150.44;5052674;28;20108;-73
2021/06/10 08:19:16;;;;;;;6.13;2.75;;;;;;;25.11;49.19;100168.47;5052702;28;20033;-73
2021/06/10 08:21:41;;;;;;;5.90;2.83;;;;;;;25.21;50.37;100169.09;5052676;28;20029;-73
2021/06/10 08:24:07;;;;;;;3.75;3.00;;;;;;;25.17;51.07;100178.88;5052091;28;20029;-73
2021/06/10 08:26:33;;;;;;;5.28;2.95;;;;;;;24.89;48.06;100115.38;5052622;28;20128;-74
2021/06/10 08:28:58;;;;;;;4.57;2.90;;;;;;;25.38;50.46;100165.09;5052387;28;20528;-73
2021/06/10 08:31:25;;;;;;;4.47;2.90;;;;;;;25.17;48.15;100183.25;5052591;28;20037;-73
2021/06/10 08:33:52;;;;;;;7.50;3.03;;;;;;;25.19;50.56;100162.97;5052343;28;20025;-73
2021/06/10 08:36:19;;;;;;;6.20;2.83;;;;;;;25.44;47.01;100171.06;5052288;28;20033;-73
2021/06/10 08:38:46;;;;;;;5.53;2.70;;;;;;;25.49;45.36;100174.44;5052157;28;20049;-73
2021/06/10 08:41:12;;;;;;;4.68;2.75;;;;;;;25.10;47.85;100118.34;5052244;28;20029;-73
2021/06/10 08:43:38;;;;;;;6.57;2.70;;;;;;;25.50;48.97;100180.59;5052259;28;20033;-73
2021/06/10 08:46:06;;;;;;;9.30;2.97;;;;;;;25.60;47.29;100173.28;5000873;28;20124;-74
2021/06/10 08:48:37;;;;;;;4.47;2.78;;;;;;;25.80;47.37;100170.88;5052337;28;20033;-73
2021/06/10 08:51:04;;;;;;;5.05;2.47;;;;;;;25.86;45.86;100180.41;5051930;28;20442;-73
2021/06/10 08:53:30;;;;;;;4.90;2.95;;;;;;;25.68;47.05;100172.13;5052022;28;20107;-74
2021/06/10 08:55:58;;;;;;;5.10;2.60;;;;;;;25.83;47.30;100177.84;5052175;28;20100;-73
2021/06/10 08:58:25;;;;;;;5.10;3.10;;;;;;;25.70;47.57;100131.56;5052016;28;20518;-73
2021/06/10 09:00:53;;;;;;;6.90;3.10;;;;;;;25.86;47.40;100146.03;5052046;28;20024;-72
2021/06/10 09:03:31;;;;;;;4.20;2.80;;;;;;;26.20;46.86;100170.56;5051609;28;20059;-73
2021/06/10 09:06:06;;;;;;;5.72;2.95;;;;;;;26.37;45.56;100177.91;5051809;28;20040;-73
2021/06/10 09:08:34;;;;;;;4.57;3.25;;;;;;;26.53;45.20;100176.50;5034095;28;20059;-74
2021/06/10 09:11:13;;;;;;;5.63;2.90;;;;;;;26.74;42.99;100177.56;5051581;28;20056;-73
2021/06/10 09:13:47;;;;;;;4.45;2.50;;;;;;;27.01;42.20;100174.84;5051734;28;20451;-74
2021/06/10 09:16:18;;;;;;;4.53;2.85;;;;;;;27.06;43.94;100172.03;5051619;28;20474;-73
2021/06/10 09:18:56;;;;;;;3.90;3.08;;;;;;;26.94;44.21;100152.13;5051657;28;20527;-74
2021/06/10 09:21:27;;;;;;;3.17;2.60;;;;;;;26.85;45.88;100108.31;5051577;28;20075;-74
2021/06/10 09:23:52;;;;;;;7.00;3.03;;;;;;;27.23;43.53;100164.34;5051413;28;20078;-74
2021/06/10 09:26:21;;;;;;;4.57;2.70;;;;;;;27.27;42.02;100144.72;5051448;28;20037;-74
2021/06/10 09:28:51;;;;;;;5.28;2.58;;;;;;;27.33;42.47;100161.31;5051354;28;20112;-74
2021/06/10 09:31:31;;;;;;;8.82;2.65;;;;;;;27.44;41.10;100156.50;5051506;28;20029;-73
2021/06/10 09:33:56;;;;;;;6.78;2.80;;;;;;;27.45;42.29;100158.25;5033523;28;20032;-73
2021/06/10 09:36:25;;;;;;;7.00;2.63;;;;;;;27.39;41.05;100139.88;5033763;28;20033;-73
2021/06/10 09:39:05;;;;;;;8.05;2.85;;;;;;;27.60;44.29;100148.81;5049114;28;20088;-74
2021/06/10 09:41:30;;;;;;;;;;;;;;;27.81;44.03;100149.78;5052175;28;20044;-74
2021/06/10 09:43:56;;;;;;;7.15;3.03;;;;;;;27.96;42.73;100142.97;5051418;28;19923;-74
2021/06/10 09:46:23;;;;;;;5.32;2.60;;;;;;;27.90;41.52;100127.31;5033661;28;20024;-73
2021/06/10 09:49:06;;;;;;;5.72;2.97;;;;;;;27.82;41.28;100140.88;5009207;28;20440;-74
2021/06/10 09:51:32;;;;;;;6.97;3.13;;;;;;;28.09;42.00;100138.94;5009388;28;20042;-74
2021/06/10 09:53:59;;;;;;;4.13;2.65;;;;;;;28.09;39.77;100117.72;5009385;28;20026;-74
2021/06/10 09:56:27;;;;;;;5.45;2.50;;;;;;;28.20;39.41;100113.72;5009470;28;20041;-74
2021/06/10 09:59:00;;;;;;;4.57;2.60;;;;;;;28.33;40.28;100130.88;4996866;28;20103;-73
2021/06/10 10:01:26;;;;;;;3.38;2.60;;;;;;;28.48;37.42;100109.91;5013324;28;20048;-73
2021/06/10 10:03:53;;;;;;;3.65;2.80;;;;;;;28.77;39.83;100118.41;5013135;28;20105;-73
2021/06/10 10:08:59;;;;;;;4.30;2.50;;;;;;;28.66;39.95;100053.34;5013140;28;20045;-72
2021/06/10 10:11:26;;;;;;;3.30;2.30;;;;;;;29.02;39.08;100110.19;5012984;28;20112;-74
2021/06/10 10:13:54;;;;;;;4.68;2.70;;;;;;;29.01;37.14;100103.16;5042734;28;20098;-73
2021/06/10 10:16:22;;;;;;;6.10;2.58;;;;;;;29.13;37.17;100097.28;5036890;28;20040;-73
2021/06/10 10:18:49;;;;;;;4.70;2.70;;;;;;;29.21;35.21;100076.53;5054775;28;20048;-74
2021/06/10 10:21:48;;;;;;;4.68;2.88;;;;;;;29.20;37.12;100065.97;5036938;28;20082;-72
2021/06/10 10:24:15;;;;;;;7.55;2.50;;;;;;;29.07;36.01;100086.91;5054679;28;20082;-77
2021/06/10 10:26:41;;;;;;;5.80;2.60;;;;;;;28.76;39.15;100034.34;5054542;28;20056;-74
2021/06/10 10:29:11;;;;;;;6.03;2.47;;;;;;;29.24;37.82;100080.81;5054646;28;20477;-74
2021/06/10 10:31:38;;;;;;;3.58;2.40;;;;;;;29.44;38.51;100087.03;5054929;28;20118;-74
2021/06/10 10:34:03;;;;;;;4.18;2.30;;;;;;;29.40;37.62;100099.59;5036952;28;20481;-74
2021/06/10 10:36:34;;;;;;;3.97;2.13;;;;;;;29.60;34.75;100081.84;5054535;28;20104;-77
2021/06/10 10:39:33;;;;;;;;;;;;;;;;;;;;;
2021/06/10 10:41:54;;;;;;;3.38;2.30;;;;;;;29.06;37.28;100082.56;4973387;28;20061;-74
2021/06/10 10:44:47;;;;;;;;;;;;;;;;;;;;;
2021/06/10 10:47:14;;;;;;;6.68;2.80;;;;;;;29.28;36.44;100068.25;4925663;28;20502;-73
2021/06/10 10:49:53;;;;;;;4.20;2.40;;;;;;;29.59;36.58;100074.78;4973334;28;20030;-74
2021/06/10 10:52:20;;;;;;;7.32;2.78;;;;;;;29.15;35.87;100079.47;4973488;28;20045;-73
2021/06/10 10:54:49;;;;;;;3.83;2.13;;;;;;;29.30;37.64;100082.38;4973369;28;20494;-73
2021/06/10 10:57:30;;;;;;;3.92;2.10;;;;;;;29.14;36.61;100083.06;4973497;28;20511;-74
2021/06/10 10:59:56;;;;;;;5.28;2.88;;;;;;;28.94;36.83;100072.50;4973539;28;20038;-74
2021/06/10 11:02:23;;;;;;;10.48;3.83;;;;;;;29.04;37.31;100079.94;4972950;28;20049;-74
2021/06/10 11:04:59;;;;;;;8.27;3.20;;;;;;;29.14;38.43;100106.13;4972949;28;20622;-73
2021/06/10 11:07:39;;;;;;;13.48;2.67;;;;;;;28.56;38.32;100105.09;4972981;28;20054;-74
2021/06/10 11:10:11;;;;;;;15.15;3.25;;;;;;;27.90;40.68;100111.38;4972999;28;20027;-73
2021/06/10 11:12:57;;;;;;;12.18;3.35;;;;;;;26.76;42.79;100074.25;4989840;28;20044;-73
2021/06/10 11:15:26;;;;;;;11.07;3.10;;;;;;;26.34;44.26;100109.22;5054074;28;20035;-73
2021/06/10 11:17:55;;;;;;;8.95;3.13;;;;;;;26.10;45.38;100103.84;5053553;28;20033;-73
2021/06/10 11:20:42;;;;;;;10.50;2.97;;;;;;;25.81;44.04;100111.78;5035900;28;20057;-73
2021/06/10 11:23:12;;;;;;;5.05;2.75;;;;;;;25.71;44.67;100120.03;5018373;28;20036;-73
2021/06/10 11:25:44;;;;;;;6.05;2.85;;;;;;;25.57;45.59;100136.34;5035921;28;20041;-73
2021/06/10 11:28:23;;;;;;;7.22;2.92;;;;;;;25.31;45.92;100082.47;5053830;28;20025;-73
2021/06/10 11:31:11;;;;;;;5.60;2.70;;;;;;;25.45;47.84;100133.16;5035670;28;20029;-73
2021/06/10 11:33:36;;;;;;;6.90;3.20;;;;;;;25.40;47.16;100128.94;5053447;28;20558;-72
2021/06/10 11:36:04;;;;;;;9.32;3.40;;;;;;;25.03;49.35;100089.47;5053775;28;20021;-73